createdAt,value
2017-12-13T00:01:41.939Z,5.50
2017-12-13T00:04:09.400Z,6.20
2017-12-13T00:06:36.863Z,6.30
2017-12-13T00:09:04.320Z,6.03
2017-12-13T00:11:31.775Z,6.30
2017-12-13T00:13:59.251Z,6.63
2017-12-13T00:16:26.726Z,6.83
2017-12-13T00:18:54.955Z,6.53
2017-12-13T00:21:22.453Z,6.20
2017-12-13T00:23:50.692Z,8.07
2017-12-13T00:26:18.145Z,5.47
2017-12-13T00:28:45.664Z,6.43
2017-12-13T00:31:13.129Z,5.87
2017-12-13T00:33:40.592Z,7.03
2017-12-13T00:36:08.093Z,6.03
2017-12-13T00:38:35.547Z,7.20
2017-12-13T00:41:03.007Z,6.53
2017-12-13T00:43:31.241Z,6.43
2017-12-13T00:45:58.701Z,5.53
2017-12-13T00:48:26.203Z,6.90
2017-12-13T00:50:53.681Z,6.03
2017-12-13T00:53:21.153Z,6.17
2017-12-13T00:55:48.619Z,6.70
2017-12-13T00:58:16.109Z,6.70
2017-12-13T01:00:43.589Z,5.70
2017-12-13T01:03:11.817Z,6.43
2017-12-13T01:05:39.306Z,6.73
2017-12-13T01:08:07.572Z,5.80
2017-12-13T01:10:35.037Z,5.73
2017-12-13T01:13:03.317Z,6.03
2017-12-13T01:15:31.555Z,6.57
2017-12-13T01:17:59.022Z,6.00
2017-12-13T01:20:26.518Z,6.40
2017-12-13T01:22:53.967Z,6.63
2017-12-13T01:25:22.197Z,6.37
2017-12-13T01:27:49.682Z,6.20
2017-12-13T01:30:17.915Z,5.40
2017-12-13T01:32:45.384Z,6.50
2017-12-13T01:35:12.883Z,6.37
2017-12-13T01:37:40.332Z,6.20
2017-12-13T01:40:08.557Z,5.47
2017-12-13T01:42:36.007Z,6.03
2017-12-13T01:45:03.487Z,6.40
2017-12-13T01:47:30.950Z,6.20
2017-12-13T01:49:58.413Z,6.30
2017-12-13T01:52:26.073Z,5.90
2017-12-13T01:54:53.543Z,5.57
2017-12-13T01:57:21.814Z,5.33
2017-12-13T01:59:50.063Z,8.40
2017-12-13T02:02:17.530Z,6.00
2017-12-13T02:04:45.769Z,5.27
2017-12-13T02:07:13.261Z,6.07
2017-12-13T02:09:41.496Z,5.23
2017-12-13T02:12:08.961Z,5.23
2017-12-13T02:14:36.425Z,5.00
2017-12-13T02:17:03.880Z,6.03
2017-12-13T02:19:31.327Z,4.90
2017-12-13T02:21:58.804Z,4.63
2017-12-13T02:24:26.289Z,5.27
2017-12-13T02:26:54.534Z,4.80
2017-12-13T02:29:22.002Z,5.67
2017-12-13T02:31:50.220Z,5.50
2017-12-13T02:34:17.685Z,5.63
2017-12-13T02:36:45.162Z,5.00
2017-12-13T02:39:12.624Z,5.83
2017-12-13T02:41:40.081Z,4.70
2017-12-13T02:44:07.554Z,4.90
2017-12-13T02:46:35.013Z,4.67
2017-12-13T02:49:03.276Z,4.43
2017-12-13T02:51:30.736Z,5.27
2017-12-13T02:53:58.196Z,5.50
2017-12-13T02:56:26.448Z,4.70
2017-12-13T02:58:53.918Z,4.30
2017-12-13T03:01:21.480Z,5.13
2017-12-13T03:03:48.970Z,5.20
2017-12-13T03:06:16.443Z,4.30
2017-12-13T03:08:44.041Z,5.07
2017-12-13T03:11:11.509Z,4.73
2017-12-13T03:13:39.784Z,4.50
2017-12-13T03:16:07.275Z,4.97
2017-12-13T03:18:34.784Z,5.17
2017-12-13T03:21:02.277Z,4.80
2017-12-13T03:23:29.812Z,4.60
2017-12-13T03:25:58.031Z,4.70
2017-12-13T03:28:25.522Z,3.97
2017-12-13T03:30:52.980Z,4.67
2017-12-13T03:33:20.492Z,4.70
2017-12-13T03:35:48.053Z,5.07
2017-12-13T03:38:15.523Z,4.00
2017-12-13T03:40:43.016Z,4.33
2017-12-13T03:43:11.258Z,4.90
2017-12-13T03:45:38.800Z,4.83
2017-12-13T03:48:06.271Z,4.50
2017-12-13T03:50:33.731Z,4.40
2017-12-13T03:53:01.335Z,4.77
2017-12-13T03:55:29.565Z,5.37
2017-12-13T03:57:57.043Z,6.13
2017-12-13T04:00:24.528Z,4.53
2017-12-13T04:02:52.796Z,4.00
2017-12-13T04:05:21.035Z,4.40
2017-12-13T04:07:48.607Z,4.10
2017-12-13T04:10:16.073Z,5.07
2017-12-13T04:12:44.319Z,4.60
2017-12-13T04:15:11.804Z,4.47
2017-12-13T04:17:40.773Z,4.70
2017-12-13T04:20:08.273Z,5.20
2017-12-13T04:22:36.487Z,4.70
2017-12-13T04:25:03.960Z,5.07
2017-12-13T04:27:31.441Z,4.67
2017-12-13T04:29:59.717Z,5.17
2017-12-13T04:32:27.941Z,5.00
2017-12-13T04:34:55.425Z,4.37
2017-12-13T04:37:22.907Z,5.60
2017-12-13T04:39:51.146Z,4.87
2017-12-13T04:42:18.631Z,4.83
2017-12-13T04:44:46.860Z,4.60
2017-12-13T04:47:14.358Z,7.50
2017-12-13T04:49:41.849Z,5.60
2017-12-13T04:52:09.366Z,6.27
2017-12-13T04:54:36.828Z,4.90
2017-12-13T04:57:05.054Z,4.30
2017-12-13T04:59:32.529Z,4.17
2017-12-13T05:02:00.007Z,4.00
2017-12-13T05:04:28.281Z,4.17
2017-12-13T05:06:56.537Z,5.83
2017-12-13T05:09:24.042Z,5.70
2017-12-13T05:11:51.476Z,4.57
2017-12-13T05:14:19.695Z,5.57
2017-12-13T05:16:47.166Z,4.37
2017-12-13T05:19:14.726Z,4.63
2017-12-13T05:21:42.227Z,7.97
2017-12-13T05:24:10.483Z,8.33
2017-12-13T05:26:38.089Z,4.17
2017-12-13T05:29:05.545Z,4.60
2017-12-13T05:31:33.033Z,5.73
2017-12-13T05:34:00.500Z,5.00
2017-12-13T05:36:27.973Z,4.53
2017-12-13T05:38:56.241Z,4.27
2017-12-13T05:41:24.603Z,4.63
2017-12-13T05:43:52.059Z,5.00
2017-12-13T05:46:19.536Z,7.83
2017-12-13T05:48:47.788Z,7.27
2017-12-13T05:51:15.394Z,4.10
2017-12-13T05:53:42.862Z,4.50
2017-12-13T05:56:10.348Z,4.23
2017-12-13T05:58:37.816Z,5.83
2017-12-13T06:01:05.286Z,5.00
2017-12-13T06:03:33.520Z,3.73
2017-12-13T06:06:01.013Z,3.73
2017-12-13T06:08:29.239Z,3.63
2017-12-13T06:10:56.736Z,4.10
2017-12-13T06:13:24.221Z,3.50
2017-12-13T06:15:52.435Z,4.00
2017-12-13T06:18:19.929Z,3.50
2017-12-13T06:20:47.488Z,9.77
2017-12-13T06:23:14.967Z,3.90
2017-12-13T06:25:43.193Z,5.03
2017-12-13T06:28:10.672Z,3.83
2017-12-13T06:30:38.205Z,3.37
2017-12-13T06:33:05.681Z,3.77
2017-12-13T06:35:33.169Z,2.90
2017-12-13T06:38:00.648Z,3.07
2017-12-13T06:40:28.113Z,4.10
2017-12-13T06:42:55.608Z,3.17
2017-12-13T06:45:23.887Z,3.40
2017-12-13T06:47:51.388Z,4.50
2017-12-13T06:50:18.842Z,5.93
2017-12-13T06:52:46.346Z,4.30
2017-12-13T06:55:13.832Z,3.97
2017-12-13T06:57:42.073Z,4.33
2017-12-13T07:00:09.632Z,5.70
2017-12-13T07:02:37.187Z,3.70
2017-12-13T07:05:04.647Z,4.53
2017-12-13T07:07:32.157Z,6.97
2017-12-13T07:09:59.620Z,4.47
2017-12-13T07:12:27.122Z,4.50
2017-12-13T07:14:54.619Z,5.80
2017-12-13T07:17:22.090Z,4.40
2017-12-13T07:19:49.568Z,3.70
2017-12-13T07:22:17.033Z,3.10
2017-12-13T07:24:44.521Z,3.97
2017-12-13T07:27:12.752Z,4.60
2017-12-13T07:29:40.221Z,4.10
2017-12-13T07:32:07.711Z,3.53
2017-12-13T07:34:35.966Z,3.13
2017-12-13T07:37:04.347Z,3.20
2017-12-13T07:39:32.591Z,2.90
2017-12-13T07:42:00.326Z,3.90
2017-12-13T07:44:27.791Z,2.60
2017-12-13T07:46:55.262Z,3.03
2017-12-13T07:49:22.746Z,3.50
2017-12-13T07:51:51.516Z,2.17
2017-12-13T07:54:20.814Z,2.47
2017-12-13T07:56:48.295Z,3.37
2017-12-13T07:59:16.530Z,2.00
2017-12-13T08:01:44.988Z,4.00
2017-12-13T08:04:12.456Z,2.40
2017-12-13T08:06:39.925Z,1.90
2017-12-13T08:09:07.405Z,3.43
2017-12-13T08:11:35.614Z,2.57
2017-12-13T08:14:03.185Z,4.13
2017-12-13T08:16:30.642Z,2.17
2017-12-13T08:18:58.110Z,3.33
2017-12-13T08:21:25.595Z,3.10
2017-12-13T08:23:53.109Z,3.00
2017-12-13T08:26:20.715Z,2.17
2017-12-13T08:28:48.165Z,3.57
2017-12-13T08:31:15.627Z,2.00
2017-12-13T08:33:43.865Z,2.60
2017-12-13T08:36:12.282Z,2.30
2017-12-13T08:38:40.557Z,2.43
2017-12-13T08:41:08.812Z,5.43
2017-12-13T08:43:36.283Z,3.43
2017-12-13T08:46:03.740Z,4.07
2017-12-13T08:48:32.213Z,5.70
2017-12-13T08:50:59.678Z,2.50
2017-12-13T08:53:27.908Z,3.50
2017-12-13T08:55:55.429Z,3.20
2017-12-13T08:58:22.941Z,3.10
2017-12-13T09:00:50.379Z,3.30
2017-12-13T09:03:17.855Z,3.43
2017-12-13T09:05:45.503Z,3.10
2017-12-13T09:08:12.978Z,4.27
2017-12-13T09:10:40.493Z,2.67
2017-12-13T09:13:08.676Z,2.20
2017-12-13T09:15:36.176Z,2.00
2017-12-13T09:18:04.431Z,2.20
2017-12-13T09:20:31.890Z,3.30
2017-12-13T09:22:59.464Z,3.10
2017-12-13T09:25:26.935Z,3.03
2017-12-13T09:27:55.296Z,1.80
2017-12-13T09:30:22.743Z,2.20
2017-12-13T09:32:50.208Z,3.60
2017-12-13T09:35:17.699Z,2.47
2017-12-13T09:37:45.249Z,2.03
2017-12-13T09:40:13.501Z,3.40
2017-12-13T09:42:41.742Z,2.50
2017-12-13T09:45:09.229Z,1.90
2017-12-13T09:47:37.479Z,1.80
2017-12-13T09:50:04.941Z,1.40
2017-12-13T09:52:32.414Z,1.70
2017-12-13T09:55:00.024Z,1.63
2017-12-13T09:57:27.576Z,1.30
2017-12-13T09:59:55.043Z,1.50
2017-12-13T10:02:22.573Z,1.47
2017-12-13T10:04:50.046Z,1.70
2017-12-13T10:07:17.512Z,1.60
2017-12-13T10:09:44.981Z,1.30
2017-12-13T10:12:12.561Z,0.90
2017-12-13T10:14:40.139Z,1.20
2017-12-13T10:17:08.377Z,1.60
2017-12-13T10:19:35.873Z,1.10
2017-12-13T10:22:04.140Z,1.60
2017-12-13T10:24:31.613Z,1.60
2017-12-13T10:26:59.862Z,1.57
2017-12-13T10:29:27.317Z,2.10
2017-12-13T10:31:54.789Z,2.87
2017-12-13T10:34:29.339Z,1.40
2017-12-13T10:36:56.809Z,3.00
2017-12-13T10:39:24.308Z,1.67
2017-12-13T10:41:51.779Z,1.73
2017-12-13T10:44:20.001Z,1.67
2017-12-13T10:46:47.469Z,1.40
2017-12-13T10:49:14.945Z,1.30
2017-12-13T10:51:42.423Z,1.30
2017-12-13T10:54:10.648Z,1.27
2017-12-13T10:56:38.122Z,3.63
2017-12-13T10:59:06.403Z,2.40
2017-12-13T11:01:33.970Z,1.30
2017-12-13T11:04:01.543Z,1.30
2017-12-13T11:06:29.764Z,1.47
2017-12-13T11:08:57.265Z,1.40
2017-12-13T11:11:25.643Z,1.70
2017-12-13T11:13:53.869Z,1.37
2017-12-13T11:16:21.412Z,1.50
2017-12-13T11:18:48.918Z,1.50
2017-12-13T11:21:16.366Z,1.50
2017-12-13T11:23:43.882Z,1.07
2017-12-13T11:26:11.329Z,1.40
2017-12-13T11:28:38.792Z,1.40
2017-12-13T11:31:06.306Z,1.10
2017-12-13T11:33:34.527Z,1.33
2017-12-13T11:36:02.003Z,2.90
2017-12-13T11:38:29.489Z,1.70
2017-12-13T11:40:57.919Z,2.27
2017-12-13T11:43:25.372Z,2.40
2017-12-13T11:45:52.902Z,2.30
2017-12-13T11:48:20.342Z,1.30
2017-12-13T11:50:48.591Z,1.50
2017-12-13T11:53:16.087Z,1.20
2017-12-13T11:55:44.318Z,1.63
2017-12-13T11:58:12.017Z,1.60
2017-12-13T12:00:40.232Z,1.13
2017-12-13T12:03:07.716Z,2.73
2017-12-13T12:05:35.213Z,2.90
2017-12-13T12:08:02.680Z,1.60
2017-12-13T12:10:30.188Z,1.27
2017-12-13T12:12:57.692Z,1.60
2017-12-13T12:15:25.211Z,1.30
2017-12-13T12:17:52.661Z,1.33
2017-12-13T12:20:20.916Z,2.63
2017-12-13T12:22:48.385Z,1.27
2017-12-13T12:25:17.366Z,1.90
2017-12-13T12:27:44.821Z,1.50
2017-12-13T12:30:12.339Z,1.23
2017-12-13T12:32:39.803Z,1.33
2017-12-13T12:35:07.261Z,3.00
2017-12-13T12:37:34.711Z,1.73
2017-12-13T12:40:02.203Z,1.70
2017-12-13T12:42:31.337Z,1.77
2017-12-13T12:44:59.561Z,5.10
2017-12-13T12:47:27.038Z,1.30
2017-12-13T12:49:54.598Z,1.73
2017-12-13T12:52:22.085Z,2.40
2017-12-13T12:54:49.658Z,3.30
2017-12-13T12:57:17.119Z,3.37
2017-12-13T12:59:44.605Z,1.63
2017-12-13T13:02:12.082Z,2.60
2017-12-13T13:04:39.525Z,2.20
2017-12-13T13:07:07.755Z,1.60
2017-12-13T13:09:35.266Z,3.40
2017-12-13T13:12:02.723Z,2.47
2017-12-13T13:14:30.172Z,1.67
2017-12-13T13:16:57.680Z,1.73
2017-12-13T13:19:25.140Z,1.67
2017-12-13T13:21:52.653Z,2.43
2017-12-13T13:24:20.883Z,1.87
2017-12-13T13:26:48.423Z,1.53
2017-12-13T13:29:15.874Z,3.03
2017-12-13T13:31:43.343Z,1.60
2017-12-13T13:34:10.944Z,1.63
2017-12-13T13:36:39.172Z,1.80
2017-12-13T13:39:06.673Z,4.70
2017-12-13T13:41:34.215Z,1.83
2017-12-13T13:44:01.798Z,2.70
2017-12-13T13:46:29.349Z,1.87
2017-12-13T13:48:58.319Z,1.60
2017-12-13T13:51:26.791Z,1.90
2017-12-13T13:53:54.257Z,1.73
2017-12-13T13:56:21.784Z,11.60
2017-12-13T13:58:49.250Z,3.43
2017-12-13T14:01:16.696Z,3.23
2017-12-13T14:03:44.200Z,3.40
2017-12-13T14:06:11.704Z,2.40
2017-12-13T14:08:39.199Z,2.80
2017-12-13T14:11:08.165Z,2.40
2017-12-13T14:13:35.654Z,2.33
2017-12-13T14:16:03.878Z,2.50
2017-12-13T14:18:31.337Z,4.00
2017-12-13T14:20:58.797Z,3.43
2017-12-13T14:23:26.330Z,5.77
2017-12-13T14:25:54.529Z,7.33
2017-12-13T14:28:22.022Z,3.33
2017-12-13T14:30:49.510Z,3.70
2017-12-13T14:33:17.771Z,9.23
2017-12-13T14:35:45.220Z,3.50
2017-12-13T14:38:12.693Z,4.37
2017-12-13T14:40:40.927Z,6.00
2017-12-13T14:43:08.515Z,4.13
2017-12-13T14:45:36.747Z,3.90
2017-12-13T14:48:04.187Z,3.70
2017-12-13T14:50:31.663Z,6.40
2017-12-13T14:52:59.141Z,3.63
2017-12-13T14:55:26.587Z,3.40
2017-12-13T14:57:54.080Z,4.30
2017-12-13T15:00:22.329Z,3.10
2017-12-13T15:02:50.550Z,3.23
2017-12-13T15:05:18.212Z,3.80
2017-12-13T15:07:45.669Z,3.27
2017-12-13T15:10:13.176Z,4.17
2017-12-13T15:12:41.502Z,2.50
2017-12-13T15:15:08.967Z,6.90
2017-12-13T15:17:36.471Z,3.73
2017-12-13T15:20:04.021Z,5.83
2017-12-13T15:22:32.974Z,3.13
2017-12-13T15:25:00.455Z,3.77
2017-12-13T15:27:27.898Z,3.50
2017-12-13T15:29:55.351Z,4.53
2017-12-13T15:32:22.851Z,3.90
2017-12-13T15:34:51.097Z,3.77
2017-12-13T15:37:18.640Z,3.70
2017-12-13T15:39:46.150Z,3.53
2017-12-13T15:42:14.382Z,5.73
2017-12-13T15:44:41.833Z,4.23
2017-12-13T15:47:09.302Z,4.83
2017-12-13T15:49:36.818Z,6.37
2017-12-13T15:52:04.321Z,6.63
2017-12-13T15:54:32.572Z,4.37
2017-12-13T15:57:00.150Z,4.43
2017-12-13T15:59:27.656Z,4.70
2017-12-13T16:01:55.166Z,3.97
2017-12-13T16:04:22.668Z,4.57
2017-12-13T16:06:50.131Z,5.63
2017-12-13T16:09:17.653Z,4.80
2017-12-13T16:11:46.810Z,7.57
2017-12-13T16:14:14.298Z,5.30
2017-12-13T16:16:42.539Z,6.27
2017-12-13T16:19:10.059Z,5.67
2017-12-13T16:21:37.550Z,5.17
2017-12-13T16:24:05.052Z,7.87
2017-12-13T16:26:33.347Z,5.97
2017-12-13T16:29:01.591Z,5.37
2017-12-13T16:31:29.842Z,4.90
2017-12-13T16:33:57.517Z,4.50
2017-12-13T16:36:25.734Z,5.47
2017-12-13T16:38:53.206Z,5.20
2017-12-13T16:41:20.729Z,4.80
2017-12-13T16:43:48.256Z,6.57
2017-12-13T16:46:16.534Z,6.70
2017-12-13T16:48:45.164Z,4.33
2017-12-13T16:51:12.656Z,4.30
2017-12-13T16:53:40.109Z,5.77
2017-12-13T16:56:07.685Z,3.97
2017-12-13T16:58:35.939Z,5.90
2017-12-13T17:01:03.405Z,7.80
2017-12-13T17:03:30.896Z,2.83
2017-12-13T17:05:58.421Z,5.80
2017-12-13T17:08:25.884Z,3.80
2017-12-13T17:10:54.884Z,3.57
2017-12-13T17:13:23.126Z,3.50
2017-12-13T17:15:50.602Z,3.03
2017-12-13T17:18:18.839Z,4.70
2017-12-13T17:20:46.315Z,9.10
2017-12-13T17:23:13.805Z,3.23
2017-12-13T17:25:42.064Z,4.83
2017-12-13T17:28:10.327Z,3.70
2017-12-13T17:30:37.826Z,3.30
2017-12-13T17:33:05.351Z,4.37
2017-12-13T17:35:34.341Z,3.43
2017-12-13T17:38:01.801Z,6.10
2017-12-13T17:40:29.293Z,3.40
2017-12-13T17:42:56.760Z,2.90
2017-12-13T17:45:24.215Z,3.87
2017-12-13T17:47:51.675Z,3.37
2017-12-13T17:50:19.173Z,3.20
2017-12-13T17:52:46.657Z,6.30
2017-12-13T17:55:14.885Z,3.70
2017-12-13T17:57:42.364Z,3.57
2017-12-13T18:00:10.659Z,5.30
2017-12-13T18:02:38.893Z,3.20
2017-12-13T18:05:06.372Z,4.47
2017-12-13T18:07:34.637Z,3.37
2017-12-13T18:10:02.075Z,3.83
2017-12-13T18:12:29.566Z,3.80
2017-12-13T18:14:57.056Z,4.47
2017-12-13T18:17:24.515Z,4.60
2017-12-13T18:19:52.034Z,3.87
2017-12-13T18:22:20.292Z,3.97
2017-12-13T18:24:47.741Z,5.20
2017-12-13T18:27:15.218Z,3.90
2017-12-13T18:29:42.684Z,3.30
2017-12-13T18:32:10.932Z,2.90
2017-12-13T18:34:38.405Z,3.40
2017-12-13T18:37:06.636Z,4.40
2017-12-13T18:39:34.135Z,4.17
2017-12-13T18:42:02.351Z,3.10
2017-12-13T18:44:29.803Z,3.63
2017-12-13T18:46:57.289Z,3.83
2017-12-13T18:49:24.750Z,2.67
2017-12-13T18:51:52.190Z,2.40
2017-12-13T18:54:19.655Z,3.90
2017-12-13T18:56:47.126Z,7.20
2017-12-13T18:59:16.126Z,4.10
2017-12-13T19:01:43.581Z,4.73
2017-12-13T19:04:11.032Z,5.17
2017-12-13T19:06:39.326Z,5.60
2017-12-13T19:09:07.542Z,5.40
2017-12-13T19:11:35.009Z,3.27
2017-12-13T19:14:02.495Z,2.43
2017-12-13T19:16:30.731Z,2.83
2017-12-13T19:18:58.172Z,2.80
2017-12-13T19:21:25.710Z,2.33
2017-12-13T19:23:53.173Z,2.43
2017-12-13T19:26:20.643Z,2.20
2017-12-13T19:28:48.114Z,2.90
2017-12-13T19:31:15.579Z,2.17
2017-12-13T19:33:43.160Z,2.70
2017-12-13T19:36:11.433Z,2.60
2017-12-13T19:38:38.906Z,2.63
2017-12-13T19:41:07.151Z,4.10
2017-12-13T19:43:34.716Z,5.53
2017-12-13T19:46:03.712Z,4.80
2017-12-13T19:48:31.188Z,4.23
2017-12-13T19:50:59.428Z,2.93
2017-12-13T19:53:26.879Z,4.03
2017-12-13T19:55:54.358Z,3.57
2017-12-13T19:58:23.406Z,2.43
2017-12-13T20:00:51.711Z,2.00
2017-12-13T20:03:19.170Z,3.20
2017-12-13T20:05:46.632Z,2.20
2017-12-13T20:08:15.646Z,3.60
2017-12-13T20:10:43.885Z,3.13
2017-12-13T20:13:11.356Z,2.40
2017-12-13T20:15:38.967Z,2.27
2017-12-13T20:18:06.412Z,3.00
2017-12-13T20:20:33.870Z,3.10
2017-12-13T20:23:01.342Z,2.77
2017-12-13T20:25:28.806Z,2.63
2017-12-13T20:27:56.272Z,4.97
2017-12-13T20:30:23.754Z,3.80
2017-12-13T20:32:52.070Z,2.00
2017-12-13T20:35:19.580Z,2.23
2017-12-13T20:37:48.564Z,3.17
2017-12-13T20:40:16.028Z,2.30
2017-12-13T20:42:44.304Z,2.47
2017-12-13T20:45:12.580Z,2.87
2017-12-13T20:47:41.535Z,2.37
2017-12-13T20:50:09.008Z,2.50
2017-12-13T20:52:36.481Z,2.67
2017-12-13T20:55:04.729Z,2.20
2017-12-13T20:57:32.231Z,2.70
2017-12-13T21:00:00.472Z,2.10
2017-12-13T21:02:27.936Z,1.57
2017-12-13T21:04:56.421Z,1.50
2017-12-13T21:07:23.942Z,2.40
2017-12-13T21:09:52.195Z,2.40
2017-12-13T21:12:19.643Z,1.50
2017-12-13T21:14:47.087Z,1.67
2017-12-13T21:17:14.744Z,2.37
2017-12-13T21:19:43.042Z,1.97
2017-12-13T21:22:10.500Z,1.50
2017-12-13T21:24:37.980Z,1.67
2017-12-13T21:27:05.437Z,1.50
2017-12-13T21:29:32.906Z,2.07
2017-12-13T21:32:00.372Z,2.03
2017-12-13T21:34:27.824Z,2.10
2017-12-13T21:36:56.073Z,3.70
2017-12-13T21:39:23.543Z,2.80
2017-12-13T21:41:51.028Z,2.60
2017-12-13T21:44:19.239Z,2.17
2017-12-13T21:46:46.704Z,2.00
2017-12-13T21:49:14.172Z,2.30
2017-12-13T21:51:41.761Z,2.40
2017-12-13T21:54:09.224Z,5.20
2017-12-13T21:56:36.681Z,3.13
2017-12-13T21:59:04.925Z,4.17
2017-12-13T22:01:32.425Z,1.80
2017-12-13T22:04:00.690Z,1.97
2017-12-13T22:06:28.994Z,3.27
2017-12-13T22:08:56.453Z,2.30
2017-12-13T22:11:23.910Z,2.50
2017-12-13T22:13:51.393Z,2.57
2017-12-13T22:16:18.867Z,2.20
2017-12-13T22:18:47.882Z,2.20
2017-12-13T22:21:16.137Z,3.43
2017-12-13T22:23:45.109Z,2.30
2017-12-13T22:26:12.623Z,1.77
2017-12-13T22:28:40.081Z,3.03
2017-12-13T22:31:07.528Z,2.50
2017-12-13T22:33:35.007Z,2.03
2017-12-13T22:36:02.457Z,3.27
2017-12-13T22:38:30.044Z,2.80
2017-12-13T22:40:57.522Z,2.13
2017-12-13T22:43:24.976Z,2.07
2017-12-13T22:45:53.258Z,3.53
2017-12-13T22:48:21.508Z,1.80
2017-12-13T22:50:48.974Z,2.37
2017-12-13T22:53:16.434Z,4.50
2017-12-13T22:55:43.917Z,2.90
2017-12-13T22:58:12.167Z,3.30
2017-12-13T23:00:50.651Z,2.03
2017-12-13T23:03:18.134Z,1.80
2017-12-13T23:05:45.701Z,2.33
2017-12-13T23:08:13.164Z,2.30
2017-12-13T23:10:41.380Z,2.17
2017-12-13T23:13:08.826Z,2.00
2017-12-13T23:15:36.286Z,1.33
2017-12-13T23:18:03.784Z,3.03
2017-12-13T23:20:31.297Z,2.17
2017-12-13T23:22:58.739Z,1.80
2017-12-13T23:25:26.231Z,3.23
2017-12-13T23:27:53.720Z,2.23
2017-12-13T23:30:22.093Z,2.20
2017-12-13T23:32:49.556Z,2.13
2017-12-13T23:35:17.013Z,1.80
2017-12-13T23:37:45.252Z,2.60
2017-12-13T23:40:12.711Z,1.73
2017-12-13T23:42:40.175Z,1.80
2017-12-13T23:45:07.636Z,2.40
2017-12-13T23:47:35.109Z,1.70
2017-12-13T23:50:03.340Z,1.40
2017-12-13T23:52:30.827Z,1.60
2017-12-13T23:54:58.271Z,1.20
2017-12-13T23:57:25.742Z,1.87
2017-12-13T23:59:53.247Z,1.50
